Time;durP1;ratioP1;P1;durP2;ratioP2;P2;SDS_P1;SDS_P2;PMS_P1;PMS_P2;Temp;Humidity;BMP_temperature;BMP_pressure;BME280_temperature;BME280_humidity;BME280_pressure;Samples;Min_cycle;Max_cycle;Signal;HPM_P1;HPM_P2
2022/04/17 00:00:25;;;;;;;1.90;1.73;;;;;;;16.71;46.21;99337.03;4965795;28;20047;-87
2022/04/17 00:02:51;;;;;;;0.80;0.47;;;;;;;16.90;46.60;99361.03;4965840;28;20031;-86
2022/04/17 00:05:17;;;;;;;0.63;0.63;;;;;;;16.79;46.39;99345.50;4964690;28;20058;-90
2022/04/17 00:07:42;;;;;;;1.52;1.42;;;;;;;16.62;46.62;99338.31;4965098;28;20039;-88
2022/04/17 00:10:10;;;;;;;1.65;1.55;;;;;;;16.47;46.62;99329.22;4957541;28;20062;-88
2022/04/17 00:12:39;;;;;;;1.88;1.23;;;;;;;16.53;47.01;99355.56;4960766;28;20477;-86
2022/04/17 00:15:06;;;;;;;1.73;1.08;;;;;;;16.30;47.54;99343.28;4952612;28;20139;-86
2022/04/17 00:17:32;;;;;;;1.98;1.73;;;;;;;16.16;48.28;99354.53;4950965;29;20098;-86
2022/04/17 00:19:57;;;;;;;2.22;1.33;;;;;;;16.15;48.53;99331.50;4962371;28;20035;-86
2022/04/17 00:22:24;;;;;;;1.38;0.93;;;;;;;16.38;48.43;99369.56;4971622;28;20132;-86
2022/04/17 00:24:49;;;;;;;0.70;0.70;;;;;;;16.04;49.90;99333.78;4970095;28;20496;-86
2022/04/17 00:27:15;;;;;;;1.10;0.63;;;;;;;16.33;49.58;99367.09;4970572;28;20034;-85
2022/04/17 00:29:43;;;;;;;2.05;1.45;;;;;;;16.26;49.58;99370.97;4971255;28;20062;-84
2022/04/17 00:32:10;;;;;;;1.50;1.23;;;;;;;16.08;49.69;99332.69;4971362;28;20069;-84
2022/04/17 00:34:37;;;;;;;1.65;1.48;;;;;;;16.21;49.12;99352.53;4971544;28;20045;-85
2022/04/17 00:37:03;;;;;;;2.30;1.02;;;;;;;16.03;49.60;99363.97;4971000;28;20042;-86
2022/04/17 00:39:28;;;;;;;1.27;1.17;;;;;;;16.12;49.89;99355.59;4970718;28;20061;-87
2022/04/17 00:41:54;;;;;;;1.45;1.13;;;;;;;16.07;50.44;99361.09;4970946;28;20035;-85
2022/04/17 00:44:19;;;;;;;;;;;;;;;15.97;50.10;99357.09;4971414;28;20089;-85
2022/04/17 00:46:45;;;;;;;2.17;1.98;;;;;;;15.85;49.99;99331.03;4971029;28;19922;-86
2022/04/17 00:49:10;;;;;;;1.55;0.77;;;;;;;15.95;49.71;99327.06;4971473;28;20031;-85
2022/04/17 00:51:36;;;;;;;;;;;;;;;16.27;49.44;99357.59;4971352;28;20035;-85
2022/04/17 00:54:04;;;;;;;0.95;0.95;;;;;;;16.12;49.75;99328.97;4970844;28;19914;-85
2022/04/17 00:56:30;;;;;;;3.25;0.80;;;;;;;16.27;49.12;99360.25;4970651;28;20035;-86
2022/04/17 00:58:56;;;;;;;1.02;0.93;;;;;;;16.12;49.13;99334.31;4970634;28;20465;-86
2022/04/17 01:01:22;;;;;;;3.22;2.50;;;;;;;16.33;48.62;99331.63;4970378;28;20045;-86
2022/04/17 01:03:49;;;;;;;1.83;0.77;;;;;;;16.09;49.71;99343.28;4971016;28;20073;-87
2022/04/17 01:06:15;;;;;;;1.27;1.17;;;;;;;16.35;49.12;99348.41;4971558;28;20062;-87
2022/04/17 01:08:41;;;;;;;1.23;0.88;;;;;;;16.23;48.42;99360.44;4969641;28;20035;-87
2022/04/17 01:11:11;;;;;;;2.25;1.80;;;;;;;15.84;48.90;99302.72;4970095;28;20054;-89
2022/04/17 01:13:41;;;;;;;1.35;1.17;;;;;;;16.13;48.98;99352.00;4971010;28;20117;-85
2022/04/17 01:16:07;;;;;;;1.83;1.35;;;;;;;15.83;49.74;99330.22;4970618;28;20037;-87
2022/04/17 01:18:55;;;;;;;1.00;0.93;;;;;;;15.98;49.85;99350.88;4970308;28;20034;-86
2022/04/17 01:21:21;;;;;;;1.85;1.42;;;;;;;15.78;49.60;99318.94;4970211;28;20580;-86
2022/04/17 01:29:15;;;;;;;2.60;1.40;;;;;;;15.97;49.94;99341.13;4971067;28;20041;-86
2022/04/17 01:31:41;;;;;;;;;;;;;;;16.00;49.64;99361.44;4970447;28;20274;-86
2022/04/17 01:34:06;;;;;;;1.65;1.55;;;;;;;16.09;49.91;99363.69;4970541;28;19941;-86
2022/04/17 01:36:31;;;;;;;;;;;;;;;16.00;49.93;99361.44;4967603;28;20110;-86
2022/04/17 01:38:57;;;;;;;0.90;0.90;;;;;;;15.69;50.57;99334.31;4970487;28;19920;-86
2022/04/17 01:41:22;;;;;;;1.75;1.58;;;;;;;15.73;49.99;99345.69;4970079;28;20073;-86
2022/04/17 01:43:48;;;;;;;;;;;;;;;16.05;49.97;99356.78;4969898;28;20031;-86
2022/04/17 01:46:13;;;;;;;1.85;1.65;;;;;;;15.68;49.77;99319.28;4969939;28;19980;-86
2022/04/17 01:48:39;;;;;;;1.02;0.98;;;;;;;15.97;49.52;99329.66;4970070;28;20126;-86
2022/04/17 01:51:04;;;;;;;;;;;;;;;16.13;49.59;99361.75;4970590;28;20469;-86
2022/04/17 01:53:29;;;;;;;0.70;0.70;;;;;;;15.97;49.77;99346.47;4970203;28;19917;-86
2022/04/17 01:55:55;;;;;;;;;;;;;;;15.99;49.84;99346.41;4970028;28;20049;-86
2022/04/17 01:58:22;;;;;;;0.80;0.80;;;;;;;16.00;51.03;99342.81;4968514;28;19914;-85
2022/04/17 02:00:47;;;;;;;2.42;1.10;;;;;;;15.86;52.06;99330.09;4969813;28;20039;-84
2022/04/17 02:03:12;;;;;;;5.20;1.35;;;;;;;15.86;52.58;99320.31;4969500;28;20027;-86
2022/04/17 02:05:38;;;;;;;2.95;1.60;;;;;;;15.76;52.16;99318.97;4969093;28;20058;-86
2022/04/17 02:08:04;;;;;;;;;;;;;;;15.90;51.97;99343.22;4970366;28;20613;-85
2022/04/17 02:10:29;;;;;;;1.20;1.08;;;;;;;15.49;52.02;99305.91;4968365;28;20008;-86
2022/04/17 02:12:55;;;;;;;;;;;;;;;15.55;53.22;99336.66;4969928;28;20034;-87
2022/04/17 02:15:20;;;;;;;;;;;;;;;15.41;52.59;99337.22;4968706;28;20371;-85
2022/04/17 02:17:45;;;;;;;;;;;;;;;15.35;52.43;99346.34;4969752;28;20024;-85
2022/04/17 02:20:11;;;;;;;1.53;1.10;;;;;;;15.25;52.76;99313.09;4968344;28;19928;-86
2022/04/17 02:22:37;;;;;;;0.95;0.85;;;;;;;15.13;52.09;99305.59;4969258;28;20417;-87
2022/04/17 02:25:02;;;;;;;0.98;0.95;;;;;;;15.04;52.15;99298.84;4969307;28;20093;-85
2022/04/17 02:27:28;;;;;;;;;;;;;;;15.25;52.52;99338.81;4969150;28;20066;-86
2022/04/17 02:29:53;;;;;;;1.45;1.25;;;;;;;15.03;52.46;99300.66;4969243;28;19922;-85
2022/04/17 02:32:19;;;;;;;;;;;;;;;15.28;51.97;99338.69;4966973;28;20062;-86
2022/04/17 02:34:44;;;;;;;;;;;;;;;15.29;52.06;99330.66;4968256;28;20016;-86
2022/04/17 02:37:09;;;;;;;;;;;;;;;15.31;51.72;99334.09;4968441;28;20452;-86
2022/04/17 02:39:37;;;;;;;1.08;0.80;;;;;;;15.00;51.18;99284.84;4964584;28;19933;-86
2022/04/17 02:42:03;;;;;;;2.47;2.08;;;;;;;15.38;51.32;99318.75;4959702;28;20081;-86
2022/04/17 02:44:28;;;;;;;0.70;0.60;;;;;;;15.24;51.24;99310.50;4949780;28;20571;-86
2022/04/17 02:49:38;;;;;;;0.77;0.77;;;;;;;15.09;51.26;99318.16;4968968;28;20009;-86
2022/04/17 02:52:04;;;;;;;1.50;0.90;;;;;;;14.92;50.99;99284.28;4968479;28;20035;-86
2022/04/17 02:54:30;;;;;;;0.50;0.50;;;;;;;15.09;50.77;99335.84;4967857;28;20039;-86
2022/04/17 02:56:55;;;;;;;;;;;;;;;15.24;50.93;99334.41;4968529;28;20038;-85
2022/04/17 02:59:21;;;;;;;1.85;1.40;;;;;;;15.16;50.74;99332.91;4970666;28;20494;-87
2022/04/17 03:07:14;;;;;;;1.60;1.10;;;;;;;14.86;50.90;99311.94;4967131;28;20052;-86
2022/04/17 03:09:40;;;;;;;1.73;0.90;;;;;;;14.85;50.57;99310.19;4968515;28;20043;-88
2022/04/17 03:12:06;;;;;;;0.93;0.88;;;;;;;14.98;50.20;99309.72;4966837;28;20043;-88
2022/04/17 03:14:31;;;;;;;;;;;;;;;15.13;49.94;99346.31;4966753;28;20145;-86
2022/04/17 03:16:56;;;;;;;1.48;1.08;;;;;;;14.78;50.73;99313.16;4967954;28;19918;-84
2022/04/17 03:19:22;;;;;;;;;;;;;;;14.93;50.82;99354.19;4969120;28;20030;-86
2022/04/17 03:21:47;;;;;;;;;;;;;;;14.86;50.84;99351.78;4968304;28;19926;-86
2022/04/17 03:24:13;;;;;;;2.17;1.50;;;;;;;14.89;51.57;99356.09;4967991;28;19929;-86
2022/04/17 03:26:41;;;;;;;0.98;0.70;;;;;;;14.72;52.49;99330.19;4966679;28;20039;-84
2022/04/17 03:29:06;;;;;;;1.55;1.45;;;;;;;14.81;53.37;99367.03;4967652;28;20033;-85
2022/04/17 03:31:32;;;;;;;;;;;;;;;14.77;54.43;99370.69;4968979;28;20117;-85
2022/04/17 03:33:57;;;;;;;1.25;1.15;;;;;;;14.53;56.08;99366.25;4966979;28;20381;-86
2022/04/17 03:36:23;;;;;;;1.60;1.50;;;;;;;14.36;57.18;99353.59;4968165;28;20034;-86
2022/04/17 03:38:48;;;;;;;;;;;;;;;14.52;58.63;99373.38;4967741;28;20034;-84
2022/04/17 03:41:13;;;;;;;;;;;;;;;14.31;59.61;99370.53;4967933;28;20440;-84
2022/04/17 03:43:39;;;;;;;5.82;1.75;;;;;;;13.99;60.90;99350.44;4967121;28;19917;-85
2022/04/17 03:46:04;;;;;;;;;;;;;;;14.08;62.45;99381.97;4969766;28;20030;-83
2022/04/17 03:48:30;;;;;;;0.98;0.93;;;;;;;13.90;63.80;99377.28;4972174;28;19922;-83
2022/04/17 03:50:56;;;;;;;;;;;;;;;13.96;64.86;99388.56;4969783;28;20042;-83
2022/04/17 03:53:21;;;;;;;2.58;2.28;;;;;;;13.73;65.41;99362.81;4971749;28;19918;-86
2022/04/17 03:55:47;;;;;;;;;;;;;;;13.68;67.06;99401.00;4970432;28;20121;-86
2022/04/17 03:58:12;;;;;;;;;;;;;;;13.63;68.78;99406.44;4972549;28;20332;-86
2022/04/17 04:00:37;;;;;;;;;;;;;;;13.68;69.16;99407.16;4971708;28;19917;-86
2022/04/17 04:03:04;;;;;;;1.17;0.93;;;;;;;13.50;70.30;99397.13;4970978;28;19917;-87
2022/04/17 04:05:29;;;;;;;1.05;0.98;;;;;;;13.18;71.75;99378.66;4969810;28;20312;-87
2022/04/17 04:07:54;;;;;;;;;;;;;;;13.54;71.24;99407.59;4971797;28;20027;-85
2022/04/17 04:10:20;;;;;;;3.00;2.63;;;;;;;13.61;71.13;99417.09;4968783;28;20614;-86
2022/04/17 04:12:45;;;;;;;;;;;;;;;13.66;71.89;99410.78;4972009;28;20840;-85
2022/04/17 04:15:11;;;;;;;2.35;2.03;;;;;;;13.46;73.05;99406.97;4970592;28;19965;-86
2022/04/17 04:17:36;;;;;;;;;;;;;;;13.41;73.21;99403.63;4972040;28;20074;-86
2022/04/17 04:20:03;;;;;;;;;;;;;;;13.46;73.40;99408.78;4971541;28;19918;-85
2022/04/17 04:22:28;;;;;;;1.27;1.02;;;;;;;13.27;74.23;99404.00;4971606;28;19916;-86
2022/04/17 04:24:53;;;;;;;;;;;;;;;13.48;74.88;99413.09;4970694;28;20034;-85
2022/04/17 04:30:04;;;;;;;2.05;1.63;;;;;;;13.15;75.47;99415.84;4970578;28;20097;-85
2022/04/17 04:32:29;;;;;;;3.25;1.83;;;;;;;12.94;76.25;99393.50;4971300;28;20045;-85
2022/04/17 04:34:59;;;;;;;;;;;;;;;13.02;76.29;99428.56;4970232;28;20038;-84
2022/04/17 04:37:25;;;;;;;1.52;1.42;;;;;;;13.03;76.38;99432.94;4970826;28;19925;-83
2022/04/17 04:39:50;;;;;;;;;;;;;;;13.08;76.66;99425.75;4970772;28;20038;-82
2022/04/17 04:42:17;;;;;;;1.27;1.17;;;;;;;12.80;77.25;99401.84;4971261;28;19925;-83
2022/04/17 04:44:42;;;;;;;2.00;1.80;;;;;;;12.95;77.45;99429.66;4970002;28;20086;-84
2022/04/17 04:47:07;;;;;;;;;;;;;;;13.07;77.42;99434.59;4971772;28;20034;-83
2022/04/17 04:49:33;;;;;;;1.50;1.40;;;;;;;12.87;77.34;99406.06;4970139;28;19917;-84
2022/04/17 04:52:00;;;;;;;;;;;;;;;12.95;78.09;99442.91;4970537;28;20573;-83
2022/04/17 04:54:26;;;;;;;1.58;1.48;;;;;;;12.88;79.00;99449.25;4969956;28;20415;-84
2022/04/17 04:56:51;;;;;;;;;;;;;;;12.79;79.93;99452.16;4970876;28;20027;-83
2022/04/17 04:59:17;;;;;;;3.15;1.83;;;;;;;12.74;80.53;99423.19;4970624;28;19910;-84
2022/04/17 05:01:42;;;;;;;;;;;;;;;12.56;80.93;99453.69;4969113;28;20074;-82
2022/04/17 05:04:08;;;;;;;2.00;1.52;;;;;;;12.53;82.08;99453.78;4969351;28;19973;-83
2022/04/17 05:06:34;;;;;;;;;;;;;;;12.51;82.92;99461.75;4969670;28;20093;-84
2022/04/17 05:08:59;;;;;;;;;;;;;;;12.56;83.38;99461.63;4971012;28;19922;-85
2022/04/17 05:11:25;;;;;;;1.85;1.08;;;;;;;12.62;83.80;99468.50;4968815;28;19922;-84
2022/04/17 05:13:50;;;;;;;;;;;;;;;12.52;84.06;99459.97;4970608;28;20122;-84
2022/04/17 05:16:15;;;;;;;;;;;;;;;12.50;84.58;99467.09;4971005;28;19918;-86
2022/04/17 05:18:42;;;;;;;1.00;0.98;;;;;;;12.22;85.54;99461.63;4970601;28;20706;-87
2022/04/17 05:21:08;;;;;;;2.10;1.95;;;;;;;12.31;86.64;99462.28;4970819;28;20035;-86
2022/04/17 05:23:37;;;;;;;2.13;1.95;;;;;;;12.23;87.46;99443.06;4970444;28;20063;-86
2022/04/17 05:26:04;;;;;;;2.20;1.98;;;;;;;12.57;86.31;99470.44;4970340;28;20126;-86
2022/04/17 05:28:30;;;;;;;2.92;2.67;;;;;;;12.52;86.18;99447.59;4969570;28;20110;-87
2022/04/17 05:30:57;;;;;;;2.55;2.35;;;;;;;12.41;87.29;99467.31;4969156;28;20033;-84
2022/04/17 05:33:23;;;;;;;1.80;1.67;;;;;;;12.32;87.88;99439.31;4969858;28;20042;-85
2022/04/17 05:35:50;;;;;;;3.85;2.53;;;;;;;12.33;87.08;99419.91;4968632;28;20134;-86
2022/04/17 05:38:16;;;;;;;1.67;1.58;;;;;;;12.13;87.98;99431.88;4970099;28;20058;-87
2022/04/17 05:40:42;;;;;;;;;;;;;;;12.46;87.76;99481.28;4968903;28;20031;-90
2022/04/17 05:43:09;;;;;;;1.35;1.13;;;;;;;12.24;88.73;99451.88;4969742;28;19922;-85
2022/04/17 05:45:35;;;;;;;3.53;2.28;;;;;;;12.33;88.24;99449.88;4969981;28;20031;-87
2022/04/17 05:48:01;;;;;;;0.95;0.95;;;;;;;12.47;87.82;99475.09;4966401;28;20100;-87
2022/04/17 05:50:27;;;;;;;;;;;;;;;12.35;88.92;99479.78;4963241;28;20425;-87
2022/04/17 05:52:52;;;;;;;2.30;2.10;;;;;;;12.33;89.49;99483.41;4960490;28;19914;-87
2022/04/17 05:55:18;;;;;;;;;;;;;;;12.14;89.34;99478.56;4965902;28;20045;-88
2022/04/17 05:57:43;;;;;;;0.85;0.82;;;;;;;12.12;90.19;99477.72;4958833;28;19929;-86
2022/04/17 06:00:09;;;;;;;;;;;;;;;12.12;90.09;99482.16;4968315;28;20042;-86
2022/04/17 06:02:36;;;;;;;1.40;0.95;;;;;;;12.02;90.40;99463.00;4961819;28;19919;-85
2022/04/17 06:05:05;;;;;;;1.52;1.42;;;;;;;12.17;90.44;99465.28;4970411;28;20497;-85
2022/04/17 06:07:31;;;;;;;1.45;1.35;;;;;;;11.99;90.49;99465.72;4970745;28;20062;-85
2022/04/17 06:10:02;;;;;;;2.22;1.52;;;;;;;11.92;90.95;99459.69;4968122;28;20134;-84
2022/04/17 06:12:28;;;;;;;2.85;2.60;;;;;;;11.87;90.94;99434.28;4968492;28;20461;-84
2022/04/17 06:14:53;;;;;;;;;;;;;;;11.96;91.19;99471.94;4970229;28;20150;-84
2022/04/17 06:17:18;;;;;;;2.83;2.63;;;;;;;11.87;91.99;99466.00;4971684;28;19914;-84
2022/04/17 06:19:44;;;;;;;;;;;;;;;12.12;91.03;99466.28;4970040;28;20425;-83
2022/04/17 06:22:11;;;;;;;;;;;;;;;12.05;91.16;99473.50;4968981;28;19922;-86
2022/04/17 06:24:36;;;;;;;0.98;0.90;;;;;;;11.75;91.03;99409.00;4969523;28;19991;-86
2022/04/17 06:27:02;;;;;;;;;;;;;;;11.96;91.01;99461.38;4969522;28;20411;-84
2022/04/17 06:29:27;;;;;;;2.90;2.70;;;;;;;11.78;91.44;99432.72;4968998;28;20037;-87
2022/04/17 06:32:01;;;;;;;;;;;;;;;11.95;91.94;99466.69;4970371;28;20038;-92
2022/04/17 06:34:27;;;;;;;3.03;2.67;;;;;;;11.64;92.39;99438.31;4961716;28;19922;-90
2022/04/17 06:36:52;;;;;;;;;;;;;;;11.69;93.50;99452.28;4955380;28;20045;-88
2022/04/17 06:39:17;;;;;;;;;;;;;;;11.75;94.01;99460.06;4971550;28;20069;-87
2022/04/17 06:41:44;;;;;;;;;;;;;;;11.85;94.78;99457.22;4968219;28;19922;-87
2022/04/17 06:44:11;;;;;;;;;;;;;;;11.87;94.01;99461.56;4968858;28;20060;-88
2022/04/17 06:46:38;;;;;;;;;;;;;;;12.18;93.50;99463.47;4969484;28;20464;-88
2022/04/17 06:49:03;;;;;;;;;;;;;;;12.09;92.36;99464.56;4969366;28;19922;-85
2022/04/17 06:51:28;;;;;;;;;;;;;;;12.05;92.79;99468.22;4969423;28;19945;-86
2022/04/17 06:53:54;;;;;;;;;;;;;;;11.89;93.56;99470.31;4969347;28;19929;-86
2022/04/17 06:56:19;;;;;;;;;;;;;;;11.91;93.60;99468.53;4969281;28;20040;-88
2022/04/17 06:58:48;;;;;;;;;;;;;;;11.76;94.13;99463.59;4968249;28;20068;-88
2022/04/17 07:01:17;;;;;;;;;;;;;;;11.68;94.91;99462.88;4967847;28;20367;-87
2022/04/17 07:03:46;;;;;;;;;;;;;;;11.69;95.64;99468.13;4968095;28;19918;-87
2022/04/17 07:06:11;;;;;;;;;;;;;;;11.69;96.40;99472.56;4958663;28;19918;-86
2022/04/17 07:08:38;;;;;;;;;;;;;;;11.80;95.47;99471.41;4974817;28;19925;-85
2022/04/17 07:11:04;;;;;;;;;;;;;;;11.91;95.24;99480.84;4967754;28;19925;-84
2022/04/17 07:13:29;;;;;;;;;;;;;;;11.88;94.41;99480.91;4963097;28;20589;-84
2022/04/17 07:15:55;;;;;;;;;;;;;;;12.02;94.61;99486.81;4968564;28;19952;-87
2022/04/17 07:18:20;;;;;;;;;;;;;;;12.25;93.88;99483.59;4966429;28;19954;-84
2022/04/17 07:20:46;;;;;;;;;;;;;;;12.31;92.45;99491.38;4968726;28;19997;-84
2022/04/17 07:23:11;;;;;;;;;;;;;;;12.22;92.29;99485.41;4968439;28;19961;-85
2022/04/17 07:25:36;;;;;;;;;;;;;;;12.12;93.49;99487.44;4968668;28;19914;-85
2022/04/17 07:28:02;;;;;;;;;;;;;;;12.15;93.54;99488.22;4969325;28;19922;-85
2022/04/17 07:30:30;;;;;;;;;;;;;;;11.87;93.94;99487.13;4968648;28;19929;-86
2022/04/17 07:32:57;;;;;;;;;;;;;;;12.00;94.36;99486.84;4967798;28;19922;-86
2022/04/17 07:35:23;;;;;;;;;;;;;;;11.89;94.50;99494.09;4966590;28;19918;-85
2022/04/17 07:37:49;;;;;;;;;;;;;;;12.11;94.18;99491.88;4968388;28;20384;-86
2022/04/17 07:40:15;;;;;;;;;;;;;;;12.17;93.56;99483.78;4968393;28;19921;-84
2022/04/17 07:42:42;;;;;;;;;;;;;;;12.11;94.01;99486.56;4968989;28;19926;-84
2022/04/17 07:45:08;;;;;;;;;;;;;;;12.31;93.15;99474.59;4968721;28;19984;-84
2022/04/17 07:47:33;;;;;;;;;;;;;;;12.58;92.51;99477.47;4968415;28;19958;-83
2022/04/17 07:49:59;;;;;;;;;;;;;;;12.72;91.42;99480.59;4968319;28;19956;-84
2022/04/17 07:52:24;;;;;;;;;;;;;;;12.87;90.34;99479.31;4967171;28;20611;-82
2022/04/17 07:54:50;;;;;;;;;;;;;;;12.69;90.08;99478.88;4968193;28;19922;-83
2022/04/17 07:57:15;;;;;;;;;;;;;;;12.63;90.34;99480.84;4969118;28;19925;-85
2022/04/17 07:59:41;;;;;;;;;;;;;;;12.64;90.49;99478.16;4968630;28;19952;-84
2022/04/17 08:02:22;;;;;;;;;;;;;;;12.86;89.54;99473.13;4968384;28;20033;-84
2022/04/17 08:04:51;;;;;;;;;;;;;;;12.96;88.88;99471.13;4968158;28;19922;-84
2022/04/17 08:07:16;;;;;;;;;;;;;;;12.84;87.72;99468.81;4967014;28;19922;-85
2022/04/17 08:09:42;;;;;;;;;;;;;;;12.87;87.67;99464.28;4968063;28;19929;-86
2022/04/17 08:12:08;;;;;;;;;;;;;;;12.62;89.23;99457.94;4967130;28;20848;-85
2022/04/17 08:14:33;;;;;;;;;;;;;;;12.89;88.37;99457.16;4968373;28;19926;-85
2022/04/17 08:16:58;;;;;;;;;;;;;;;12.90;87.64;99458.06;4965881;28;19949;-86
2022/04/17 08:19:24;;;;;;;;;;;;;;;12.87;88.00;99452.84;4968503;28;19918;-85
2022/04/17 08:21:50;;;;;;;;;;;;;;;12.79;89.22;99447.78;4968868;28;19965;-87
2022/04/17 08:24:15;;;;;;;;;;;;;;;12.53;90.29;99454.63;4967602;28;20687;-85
2022/04/17 08:26:40;;;;;;;;;;;;;;;12.58;90.00;99454.50;4970158;28;19925;-85
2022/04/17 08:29:06;;;;;;;;;;;;;;;12.52;89.93;99458.16;4969152;28;19922;-85
2022/04/17 08:31:31;;;;;;;;;;;;;;;12.61;90.13;99456.22;4968266;28;20293;-86
2022/04/17 08:33:56;;;;;;;;;;;;;;;12.40;91.27;99462.94;4971856;28;19922;-85
2022/04/17 08:36:22;;;;;;;;;;;;;;;12.45;91.71;99467.19;4972580;28;20728;-86
2022/04/17 08:38:47;;;;;;;;;;;;;;;12.48;90.85;99474.16;4972593;28;19980;-86
2022/04/17 08:41:13;;;;;;;;;;;;;;;12.83;90.49;99467.94;4972562;28;19918;-86
2022/04/17 08:43:39;;;;;;;;;;;;;;;12.74;89.23;99464.69;4972952;28;20463;-85
2022/04/17 08:46:04;;;;;;;;;;;;;;;12.61;89.81;99459.72;4972875;28;20016;-86
2022/04/17 08:48:32;;;;;;;;;;;;;;;12.59;90.74;99456.25;4971322;28;19928;-86
2022/04/17 08:50:57;;;;;;;;;;;;;;;12.60;90.68;99465.91;4971581;28;19929;-84
2022/04/17 08:53:23;;;;;;;;;;;;;;;12.63;90.46;99460.53;4970366;28;19918;-84
2022/04/17 08:55:50;;;;;;;;;;;;;;;12.77;89.67;99461.94;4970359;28;19922;-83
2022/04/17 08:58:15;;;;;;;;;;;;;;;12.88;88.83;99446.63;4968940;28;19950;-84
2022/04/17 09:00:40;;;;;;;;;;;;;;;12.62;89.60;99444.69;4970022;28;19983;-84
2022/04/17 09:03:07;;;;;;;;;;;;;;;12.53;90.11;99433.47;4971186;28;19969;-85
2022/04/17 09:05:33;;;;;;;;;;;;;;;12.52;90.74;99434.38;4971181;28;19924;-85
2022/04/17 09:08:10;;;;;;;;;;;;;;;12.61;90.38;99429.75;4956310;28;19922;-85
2022/04/17 09:10:35;;;;;;;;;;;;;;;12.45;91.11;99439.88;4963781;28;19926;-85
2022/04/17 09:13:04;;;;;;;;;;;;;;;12.52;91.09;99438.78;4968306;28;20412;-85
2022/04/17 09:15:33;;;;;;;;;;;;;;;12.60;90.71;99439.44;4969271;28;19922;-85
2022/04/17 09:17:59;;;;;;;;;;;;;;;12.35;93.05;99449.81;4971591;28;20012;-85
2022/04/17 09:20:25;;;;;;;;;;;;;;;12.19;92.09;99444.06;4971858;28;20005;-85
2022/04/17 09:22:51;;;;;;;;;;;;;;;12.31;92.69;99442.88;4971385;28;20004;-83
2022/04/17 09:25:17;;;;;;;;;;;;;;;12.14;92.75;99430.97;4972229;28;19918;-88
2022/04/17 09:28:00;;;;;;;;;;;;;;;12.00;93.80;99439.25;4973144;28;19924;-89
2022/04/17 09:30:33;;;;;;;;;;;;;;;12.12;94.45;99445.13;4971755;28;19918;-88
2022/04/17 09:33:02;;;;;;;;;;;;;;;11.95;94.51;99440.25;4971127;28;19918;-84
2022/04/17 09:35:27;;;;;;;;;;;;;;;11.79;95.50;99437.97;4970703;28;20017;-83
2022/04/17 09:37:58;;;;;;;;;;;;;;;11.59;96.46;99435.78;4971341;28;19996;-86
2022/04/17 09:40:24;;;;;;;;;;;;;;;11.59;96.16;99430.50;4965931;28;20313;-87
2022/04/17 09:42:50;;;;;;;;;;;;;;;11.39;97.04;99424.81;4969497;28;19914;-88
2022/04/17 09:45:17;;;;;;;;;;;;;;;11.33;97.53;99424.97;4976902;28;20448;-88
2022/04/17 09:47:55;;;;;;;;;;;;;;;11.24;96.42;99418.09;4971461;28;19918;-87
2022/04/17 09:50:29;;;;;;;;;;;;;;;11.12;97.46;99406.03;4973673;28;20013;-87
2022/04/17 09:52:56;;;;;;;;;;;;;;;11.06;97.40;99395.59;4986878;28;19918;-86
2022/04/17 09:55:27;;;;;;;;;;;;;;;10.95;97.46;99397.63;4971993;28;19925;-84
2022/04/17 09:57:57;;;;;;;;;;;;;;;10.90;96.89;99393.28;4971268;28;19945;-87
2022/04/17 10:00:23;;;;;;;;;;;;;;;11.11;97.26;99396.38;4971635;28;19949;-85
2022/04/17 10:02:49;;;;;;;;;;;;;;;11.12;94.96;99384.91;4971086;28;19917;-85
2022/04/17 10:05:15;;;;;;;;;;;;;;;11.13;95.51;99388.44;4970469;28;19921;-86
2022/04/17 10:07:42;;;;;;;;;;;;;;;11.29;95.49;99384.53;4971033;28;20046;-86
2022/04/17 10:10:08;;;;;;;;;;;;;;;11.09;96.27;99383.22;4970372;28;19914;-85
2022/04/17 10:12:36;;;;;;;;;;;;;;;11.24;95.74;99384.63;4970335;28;19973;-83
2022/04/17 10:15:06;;;;;;;;;;;;;;;11.02;95.24;99381.63;4970437;28;19917;-84
2022/04/17 10:17:32;;;;;;;;;;;;;;;11.06;94.73;99380.66;4969922;28;20045;-82
2022/04/17 10:20:01;;;;;;;;;;;;;;;11.16;95.46;99378.66;4969414;28;20021;-86
2022/04/17 10:22:29;;;;;;;;;;;;;;;11.09;95.66;99379.69;4966848;28;19918;-87
2022/04/17 10:24:57;;;;;;;;;;;;;;;11.12;94.35;99379.63;4969282;28;19918;-89
2022/04/17 10:27:24;;;;;;;;;;;;;;;11.11;93.28;99381.41;4968078;28;20024;-85
2022/04/17 10:29:54;;;;;;;;;;;;;;;11.11;94.01;99385.84;4968441;28;19925;-86
2022/04/17 10:32:38;;;;;;;;;;;;;;;11.09;93.20;99384.97;4969203;28;19914;-86
2022/04/17 10:35:04;;;;;;;;;;;;;;;10.93;93.53;99401.16;4968843;28;19925;-85
2022/04/17 10:37:48;;;;;;;;;;;;;;;10.99;94.30;99408.06;4969565;28;19956;-85
2022/04/17 10:40:13;;;;;;;;;;;;;;;11.06;93.50;99403.53;4969454;28;19922;-85
2022/04/17 10:42:57;;;;;;;;;;;;;;;10.74;93.41;99410.34;4971443;28;19921;-86
2022/04/17 10:45:23;;;;;;;;;;;;;;;10.49;92.24;99407.34;4969791;28;19918;-89
2022/04/17 10:48:09;;;;;;;;;;;;;;;10.43;92.93;99412.75;4968457;28;19918;-86
2022/04/17 10:50:44;;;;;;;;;;;;;;;10.60;92.14;99410.63;4976087;28;19914;-87
2022/04/17 10:53:32;;;;;;;;;;;;;;;10.54;93.06;99416.03;4978631;28;20149;-87
2022/04/17 10:56:07;;;;;;;;;;;;;;;10.52;93.83;99421.34;4977000;28;19922;-86
2022/04/17 10:58:33;;;;;;;;;;;;;;;10.56;93.32;99422.13;4951752;28;19919;-87
2022/04/17 11:00:59;;;;;;;;;;;;;;;10.38;93.55;99426.00;4977581;28;20281;-86
2022/04/17 11:03:26;;;;;;;;;;;;;;;10.26;93.26;99427.06;4974342;28;19929;-87
2022/04/17 11:06:12;;;;;;;;;;;;;;;10.27;94.71;99434.09;4974494;28;19989;-88
2022/04/17 11:08:48;;;;;;;;;;;;;;;10.32;95.08;99440.13;4975517;28;19922;-85
2022/04/17 11:11:13;;;;;;;;;;;;;;;10.35;94.58;99436.63;4971664;28;19928;-84
2022/04/17 11:13:58;;;;;;;;;;;;;;;10.21;94.72;99426.28;4972637;28;19922;-85
2022/04/17 11:16:24;;;;;;;;;;;;;;;10.15;94.36;99421.97;4970972;28;19922;-84
2022/04/17 11:18:51;;;;;;;;;;;;;;;10.15;94.60;99423.75;4970112;28;19925;-85
2022/04/17 11:21:16;;;;;;;;;;;;;;;9.93;95.50;99417.97;4970106;28;20312;-84
2022/04/17 11:23:48;;;;;;;;;;;;;;;10.15;95.96;99410.56;4971845;28;19917;-85
2022/04/17 11:26:13;;;;;;;;;;;;;;;10.09;96.49;99416.81;4970994;28;19925;-86
2022/04/17 11:28:38;;;;;;;;;;;;;;;10.06;95.57;99416.00;4971565;28;19918;-83
2022/04/17 11:31:04;;;;;;;;;;;;;;;9.79;96.13;99412.91;4970612;28;19914;-86
2022/04/17 11:33:30;;;;;;;;;;;;;;;9.91;95.74;99412.72;4969659;28;19918;-83
2022/04/17 11:35:56;;;;;;;;;;;;;;;9.87;96.61;99418.94;4967805;28;20691;-83
2022/04/17 11:38:22;;;;;;;;;;;;;;;9.95;95.59;99414.41;4969062;28;19950;-83
2022/04/17 11:40:48;;;;;;;;;;;;;;;9.92;95.98;99403.94;4968072;28;20826;-84
2022/04/17 11:43:15;;;;;;;;;;;;;;;9.94;95.93;99394.22;4968890;28;20056;-83
2022/04/17 11:45:42;;;;;;;;;;;;;;;9.95;95.64;99389.84;4968812;28;19926;-84
2022/04/17 11:48:08;;;;;;;;;;;;;;;10.00;96.03;99385.34;4968656;28;19918;-82
2022/04/17 11:50:34;;;;;;;;;;;;;;;9.87;95.55;99379.44;4968468;28;19918;-85
2022/04/17 11:53:03;;;;;;;;;;;;;;;9.75;96.77;99384.91;4969168;28;19976;-83
2022/04/17 11:55:32;;;;;;;;;;;;;;;9.80;98.15;99391.81;4967974;28;19918;-83
2022/04/17 11:57:59;;;;;;;;;;;;;;;9.75;97.35;99391.03;4965759;28;19921;-84
2022/04/17 12:00:25;;;;;;;;;;;;;;;9.73;97.20;99394.56;4968700;28;19925;-84
2022/04/17 12:02:57;;;;;;;;;;;;;;;9.79;97.18;99391.84;4968451;28;20658;-83
2022/04/17 12:05:23;;;;;;;;;;;;;;;9.48;96.93;99394.97;4968531;28;19921;-83
2022/04/17 12:08:01;;;;;;;;;;;;;;;9.32;96.83;99394.34;4970969;28;19929;-83
2022/04/17 12:10:26;;;;;;;;;;;;;;;9.41;97.15;99399.47;4970405;28;19972;-82
2022/04/17 12:12:52;;;;;;;;;;;;;;;9.10;96.87;99392.00;4971226;28;19914;-83
2022/04/17 12:15:17;;;;;;;;;;;;;;;9.07;98.49;99388.56;4970796;28;19972;-83
2022/04/17 12:17:42;;;;;;;;;;;;;;;9.00;97.34;99384.25;4967031;28;20004;-84
2022/04/17 12:20:14;;;;;;;;;;;;;;;9.13;98.54;99385.84;4973295;28;19925;-83
2022/04/17 12:22:40;;;;;;;;;;;;;;;8.99;98.08;99382.50;4972021;28;19914;-83
2022/04/17 12:25:15;;;;;;;;;;;;;;;9.05;97.89;99377.16;4969667;28;20277;-82
2022/04/17 12:27:41;;;;;;;;;;;;;;;8.99;98.47;99378.13;4970767;28;19922;-84
2022/04/17 12:30:06;;;;;;;;;;;;;;;9.01;98.36;99364.97;4974282;28;19918;-85
2022/04/17 12:32:34;;;;;;;;;;;;;;;8.97;98.56;99358.84;4972282;28;19918;-85
2022/04/17 12:35:00;;;;;;;;;;;;;;;9.12;98.58;99357.78;4972883;28;19926;-87